createdAt,value
2018-08-14T00:00:35.471Z,15.80
2018-08-14T00:03:12.971Z,16.87
2018-08-14T00:05:41.994Z,16.80
2018-08-14T00:08:10.780Z,19.10
2018-08-14T00:10:39.618Z,16.77
2018-08-14T00:13:10.634Z,18.33
2018-08-14T00:15:39.414Z,17.20
2018-08-14T00:18:08.735Z,17.40
2018-08-14T00:20:37.432Z,17.53
2018-08-14T00:23:06.354Z,16.70
2018-08-14T00:25:35.125Z,16.53
2018-08-14T00:28:04.394Z,16.60
2018-08-14T00:30:33.738Z,16.63
2018-08-14T00:33:02.589Z,16.53
2018-08-14T00:35:31.588Z,17.43
2018-08-14T00:38:00.344Z,17.73
2018-08-14T00:40:30.239Z,16.87
2018-08-14T00:43:01.552Z,16.83
2018-08-14T00:45:30.304Z,15.10
2018-08-14T00:47:59.076Z,16.17
2018-08-14T00:50:27.748Z,15.53
2018-08-14T00:52:56.507Z,16.80
2018-08-14T00:55:25.232Z,16.90
2018-08-14T00:57:53.913Z,17.77
2018-08-14T01:00:27.985Z,18.33
2018-08-14T01:02:56.746Z,18.47
2018-08-14T01:05:25.556Z,18.73
2018-08-14T01:07:54.269Z,18.87
2018-08-14T01:10:23.000Z,22.10
2018-08-14T01:12:55.531Z,19.23
2018-08-14T01:15:25.539Z,19.90
2018-08-14T01:17:55.293Z,19.90
2018-08-14T01:20:25.272Z,19.47
2018-08-14T01:22:54.040Z,20.57
2018-08-14T01:25:22.757Z,22.17
2018-08-14T01:27:52.300Z,20.70
2018-08-14T01:30:26.213Z,20.57
2018-08-14T01:32:55.024Z,22.53
2018-08-14T01:35:23.818Z,22.70
2018-08-14T01:37:52.508Z,23.70
2018-08-14T01:40:21.524Z,22.53
2018-08-14T01:42:49.849Z,23.40
2018-08-14T01:45:18.562Z,23.67
2018-08-14T01:47:46.883Z,27.03
2018-08-14T01:50:25.241Z,24.90
2018-08-14T01:52:53.987Z,25.50
2018-08-14T01:55:23.427Z,25.47
2018-08-14T01:57:52.191Z,26.10
2018-08-14T02:00:22.357Z,28.93
2018-08-14T02:02:51.506Z,28.80
2018-08-14T02:05:19.819Z,28.33
2018-08-14T02:07:48.103Z,29.83
2018-08-14T02:10:19.220Z,31.50
2018-08-14T02:12:47.972Z,32.23
2018-08-14T02:15:19.934Z,31.57
2018-08-14T02:17:48.236Z,33.50
2018-08-14T02:20:18.366Z,32.30
2018-08-14T02:22:47.436Z,33.87
2018-08-14T02:25:16.240Z,34.57
2018-08-14T02:27:44.996Z,36.70
2018-08-14T02:30:14.414Z,33.73
2018-08-14T02:32:43.174Z,34.43
2018-08-14T02:35:12.508Z,35.33
2018-08-14T02:37:41.319Z,35.83
2018-08-14T02:40:17.140Z,36.00
2018-08-14T02:42:45.841Z,36.10
2018-08-14T02:45:14.185Z,36.37
2018-08-14T02:47:42.838Z,39.07
2018-08-14T02:50:12.492Z,38.73
2018-08-14T02:52:40.939Z,35.53
2018-08-14T02:55:10.368Z,34.33
2018-08-14T02:57:38.741Z,33.77
2018-08-14T03:00:09.862Z,35.00
2018-08-14T03:02:38.566Z,33.50
2018-08-14T03:05:06.927Z,34.77
2018-08-14T03:07:35.228Z,34.20
2018-08-14T03:10:06.947Z,32.87
2018-08-14T03:12:35.665Z,35.80
2018-08-14T03:15:04.053Z,33.67
2018-08-14T03:17:32.852Z,37.70
2018-08-14T03:20:01.215Z,35.43
2018-08-14T03:22:29.563Z,32.63
2018-08-14T03:24:58.248Z,31.63
2018-08-14T03:27:26.608Z,34.47
2018-08-14T03:29:55.347Z,37.00
2018-08-14T03:32:23.857Z,33.37
2018-08-14T03:34:52.275Z,33.83
2018-08-14T03:37:20.895Z,32.63
2018-08-14T03:39:49.584Z,34.53
2018-08-14T03:42:18.684Z,36.53
2018-08-14T03:44:47.403Z,34.37
2018-08-14T03:47:15.690Z,33.57
2018-08-14T03:49:44.004Z,34.03
2018-08-14T03:52:12.781Z,34.17
2018-08-14T03:54:41.495Z,36.87
2018-08-14T03:57:10.138Z,32.80
2018-08-14T03:59:38.496Z,33.77
2018-08-14T04:02:07.239Z,33.70
2018-08-14T04:04:35.626Z,34.27
2018-08-14T04:07:04.407Z,33.70
2018-08-14T04:09:32.737Z,33.33
2018-08-14T04:12:01.044Z,31.67
2018-08-14T04:14:29.372Z,34.63
2018-08-14T04:16:57.697Z,33.53
2018-08-14T04:19:26.380Z,35.30
2018-08-14T04:21:54.688Z,36.40
2018-08-14T04:24:23.373Z,32.17
2018-08-14T04:26:52.319Z,29.83
2018-08-14T04:29:20.647Z,29.10
2018-08-14T04:31:48.937Z,29.67
2018-08-14T04:34:17.211Z,28.17
2018-08-14T04:36:45.531Z,26.85
2018-08-14T04:39:14.237Z,27.63
2018-08-14T04:41:42.710Z,29.10
2018-08-14T04:44:11.417Z,29.53
2018-08-14T04:46:39.758Z,30.27
2018-08-14T04:49:08.055Z,28.97
2018-08-14T04:51:36.749Z,28.63
2018-08-14T04:54:05.068Z,28.40
2018-08-14T04:56:33.444Z,31.17
2018-08-14T04:59:02.164Z,28.17
2018-08-14T05:01:30.521Z,27.53
2018-08-14T05:03:59.279Z,26.87
2018-08-14T05:06:27.595Z,30.17
2018-08-14T05:08:56.330Z,27.37
2018-08-14T05:11:24.856Z,26.27
2018-08-14T05:13:56.832Z,28.98
2018-08-14T05:16:25.275Z,31.12
2018-08-14T05:18:53.920Z,27.13
2018-08-14T05:21:22.725Z,27.15
2018-08-14T05:23:51.367Z,29.13
2018-08-14T05:26:19.755Z,31.05
2018-08-14T05:28:54.563Z,31.57
2018-08-14T05:31:23.198Z,32.37
2018-08-14T05:33:51.646Z,29.92
2018-08-14T05:36:19.942Z,30.45
2018-08-14T05:38:48.288Z,32.37
2018-08-14T05:41:17.045Z,28.83
2018-08-14T05:43:45.398Z,34.00
2018-08-14T05:46:14.161Z,30.08
2018-08-14T05:48:42.445Z,30.10
2018-08-14T05:51:10.920Z,28.73
2018-08-14T05:53:39.699Z,27.40
2018-08-14T05:56:08.081Z,30.80
2018-08-14T05:58:36.423Z,27.27
2018-08-14T06:01:05.148Z,31.25
2018-08-14T06:03:33.844Z,27.87
2018-08-14T06:06:02.141Z,27.42
2018-08-14T06:08:30.446Z,27.10
2018-08-14T06:10:59.218Z,28.35
2018-08-14T06:13:27.939Z,30.02
2018-08-14T06:15:56.329Z,26.27
2018-08-14T06:18:24.676Z,28.77
2018-08-14T06:20:53.298Z,29.72
2018-08-14T06:23:21.610Z,27.42
2018-08-14T06:25:49.984Z,32.30
2018-08-14T06:28:18.696Z,33.98
2018-08-14T06:30:47.031Z,34.07
2018-08-14T06:33:15.709Z,33.77
2018-08-14T06:35:44.445Z,31.60
2018-08-14T06:38:12.764Z,29.97
2018-08-14T06:40:41.477Z,35.07
2018-08-14T06:43:09.837Z,27.20
2018-08-14T06:45:38.184Z,31.97
2018-08-14T06:48:06.641Z,30.72
2018-08-14T06:50:35.326Z,29.77
2018-08-14T06:53:04.108Z,30.57
2018-08-14T06:55:32.778Z,32.98
2018-08-14T06:58:01.124Z,27.40
2018-08-14T07:00:29.832Z,25.60
2018-08-14T07:02:58.585Z,24.77
2018-08-14T07:05:27.272Z,24.00
2018-08-14T07:07:55.584Z,22.07
2018-08-14T07:10:23.988Z,24.93
2018-08-14T07:12:52.320Z,21.42
2018-08-14T07:15:23.318Z,17.02
2018-08-14T07:17:52.080Z,22.30
2018-08-14T07:20:20.517Z,18.07
2018-08-14T07:22:49.226Z,20.23
2018-08-14T07:25:19.382Z,19.62
2018-08-14T07:27:48.122Z,17.70
2018-08-14T07:30:18.916Z,14.27
2018-08-14T07:32:48.205Z,13.03
2018-08-14T07:35:16.557Z,16.47
2018-08-14T07:37:45.193Z,14.80
2018-08-14T07:40:13.786Z,17.43
2018-08-14T07:42:42.980Z,15.28
2018-08-14T07:45:15.023Z,15.73
2018-08-14T07:47:44.026Z,16.17
2018-08-14T07:50:13.355Z,18.30
2018-08-14T07:52:42.925Z,17.02
2018-08-14T07:55:11.856Z,23.22
2018-08-14T07:57:40.963Z,18.27
2018-08-14T08:00:12.432Z,16.57
2018-08-14T08:02:41.114Z,15.38
2018-08-14T08:05:10.056Z,13.70
2018-08-14T08:07:39.147Z,13.50
2018-08-14T08:10:10.299Z,13.45
2018-08-14T08:12:39.462Z,13.30
2018-08-14T08:15:09.613Z,12.20
2018-08-14T08:17:38.726Z,10.58
2018-08-14T08:20:08.337Z,8.93
2018-08-14T08:22:36.950Z,12.97
2018-08-14T08:25:05.728Z,9.10
2018-08-14T08:27:34.052Z,7.73
2018-08-14T08:30:02.535Z,8.40
2018-08-14T08:32:30.845Z,6.83
2018-08-14T08:34:59.591Z,7.30
2018-08-14T08:37:28.305Z,6.13
2018-08-14T08:39:56.629Z,4.97
2018-08-14T08:42:25.387Z,5.60
2018-08-14T08:44:54.110Z,4.60
2018-08-14T08:47:22.906Z,4.55
2018-08-14T08:49:51.261Z,4.42
2018-08-14T08:52:20.050Z,5.17
2018-08-14T08:54:48.784Z,7.10
2018-08-14T08:57:17.084Z,5.42
2018-08-14T08:59:45.391Z,5.27
2018-08-14T09:02:13.717Z,5.60
2018-08-14T09:04:42.490Z,5.53
2018-08-14T09:07:10.817Z,5.03
2018-08-14T09:09:39.559Z,4.57
2018-08-14T09:12:08.324Z,3.77
2018-08-14T09:14:37.055Z,3.93
2018-08-14T09:17:05.461Z,4.37
2018-08-14T09:19:33.825Z,3.40
2018-08-14T09:22:02.387Z,3.43
2018-08-14T09:24:31.302Z,4.53
2018-08-14T09:27:00.067Z,3.50
2018-08-14T09:29:31.200Z,2.37
2018-08-14T09:31:59.548Z,5.30
2018-08-14T09:34:28.762Z,4.43
2018-08-14T09:36:57.267Z,3.97
2018-08-14T09:39:32.511Z,4.07
2018-08-14T09:42:01.506Z,4.72
2018-08-14T09:44:30.982Z,4.53
2018-08-14T09:46:59.329Z,7.83
2018-08-14T09:49:27.681Z,5.42
2018-08-14T09:52:01.032Z,6.13
2018-08-14T09:54:29.989Z,6.75
2018-08-14T09:56:58.695Z,5.53
2018-08-14T09:59:27.433Z,6.22
2018-08-14T10:02:01.326Z,8.88
2018-08-14T10:04:43.680Z,6.85
2018-08-14T10:07:18.832Z,12.98
2018-08-14T10:09:49.497Z,4.80
2018-08-14T10:12:23.359Z,8.48
2018-08-14T10:14:57.225Z,8.70
2018-08-14T10:17:25.665Z,6.03
2018-08-14T10:19:54.510Z,7.70
2018-08-14T10:22:23.201Z,10.32
2018-08-14T10:24:51.952Z,7.20
2018-08-14T10:27:30.319Z,6.53
2018-08-14T10:29:59.348Z,8.30
2018-08-14T10:32:28.165Z,6.55
2018-08-14T10:34:59.274Z,6.00
2018-08-14T10:37:27.875Z,7.70
2018-08-14T10:39:56.681Z,7.35
2018-08-14T10:42:33.235Z,5.58
2018-08-14T10:45:16.578Z,6.78
2018-08-14T10:47:57.329Z,4.75
2018-08-14T10:50:32.340Z,5.50
2018-08-14T10:53:12.102Z,5.70
2018-08-14T10:55:50.527Z,6.07
2018-08-14T10:58:30.280Z,8.03
2018-08-14T11:01:08.942Z,6.97
2018-08-14T11:03:47.428Z,8.03
2018-08-14T11:06:25.760Z,6.67
2018-08-14T11:09:03.578Z,5.63
2018-08-14T11:11:45.098Z,3.70
2018-08-14T11:14:28.451Z,2.87
2018-08-14T11:17:06.854Z,6.00
2018-08-14T11:19:42.239Z,3.30
2018-08-14T11:22:20.524Z,3.13
2018-08-14T11:25:03.236Z,3.33
2018-08-14T11:27:41.557Z,4.60
2018-08-14T11:30:49.295Z,4.20
2018-08-14T11:33:25.849Z,3.87
2018-08-14T11:36:08.836Z,4.50
2018-08-14T11:38:49.014Z,6.27
2018-08-14T11:41:26.944Z,6.00
2018-08-14T11:44:07.245Z,6.97
2018-08-14T11:46:36.184Z,8.23
2018-08-14T11:49:04.952Z,7.10
2018-08-14T11:51:33.731Z,5.60
2018-08-14T11:54:02.110Z,6.63
2018-08-14T11:56:30.864Z,4.20
2018-08-14T11:58:59.568Z,4.40
2018-08-14T12:01:28.291Z,5.43
2018-08-14T12:03:57.870Z,4.67
2018-08-14T12:06:26.550Z,3.23
2018-08-14T12:08:54.856Z,5.77
2018-08-14T12:11:23.740Z,3.77
2018-08-14T12:13:52.529Z,4.40
2018-08-14T12:16:21.318Z,4.60
2018-08-14T12:18:49.658Z,6.13
2018-08-14T12:21:18.438Z,5.27
2018-08-14T12:23:47.174Z,4.90
2018-08-14T12:26:15.860Z,5.23
2018-08-14T12:28:45.651Z,5.57
2018-08-14T12:31:13.987Z,6.73
2018-08-14T12:33:42.402Z,4.93
2018-08-14T12:36:11.265Z,5.40
2018-08-14T12:38:39.597Z,4.40
2018-08-14T12:41:07.924Z,4.90
2018-08-14T12:43:37.436Z,4.50
2018-08-14T12:46:05.895Z,8.28
2018-08-14T12:48:34.646Z,4.60
2018-08-14T12:51:06.599Z,10.00
2018-08-14T12:53:35.367Z,5.92
2018-08-14T12:56:04.775Z,5.55
2018-08-14T12:58:33.653Z,6.97
2018-08-14T13:01:02.006Z,7.40
2018-08-14T13:03:30.380Z,7.70
2018-08-14T13:05:59.104Z,7.78
2018-08-14T13:08:27.775Z,7.55
2018-08-14T13:10:57.904Z,6.42
2018-08-14T13:13:26.607Z,8.28
2018-08-14T13:15:54.926Z,6.85
2018-08-14T13:18:23.684Z,6.17
2018-08-14T13:20:52.349Z,6.00
2018-08-14T13:23:20.698Z,5.67
2018-08-14T13:25:50.582Z,6.78
2018-08-14T13:28:19.323Z,4.80
2018-08-14T13:30:48.900Z,3.50
2018-08-14T13:33:17.653Z,7.15
2018-08-14T13:35:45.994Z,5.00
2018-08-14T13:38:14.736Z,7.00
2018-08-14T13:40:43.043Z,5.60
2018-08-14T13:43:11.835Z,5.28
2018-08-14T13:45:40.265Z,4.03
2018-08-14T13:48:09.214Z,4.95
2018-08-14T13:50:37.953Z,5.83
2018-08-14T13:53:06.647Z,5.58
2018-08-14T13:55:35.657Z,5.67
2018-08-14T13:58:04.673Z,8.05
2018-08-14T14:00:34.010Z,8.25
2018-08-14T14:03:03.420Z,6.87
2018-08-14T14:05:34.094Z,5.75
2018-08-14T14:08:02.911Z,6.37
2018-08-14T14:10:38.883Z,7.05
2018-08-14T14:13:07.894Z,5.85
2018-08-14T14:15:37.670Z,5.90
2018-08-14T14:18:06.584Z,4.20
2018-08-14T14:20:35.279Z,5.67
2018-08-14T14:23:03.598Z,3.98
2018-08-14T14:25:32.171Z,7.97
2018-08-14T14:28:00.950Z,3.83
2018-08-14T14:30:29.716Z,4.58
2018-08-14T14:32:58.564Z,3.05
2018-08-14T14:35:27.407Z,4.05
2018-08-14T14:37:56.287Z,5.05
2018-08-14T14:40:26.163Z,6.50
2018-08-14T14:43:04.862Z,6.12
2018-08-14T14:45:33.745Z,8.75
2018-08-14T14:48:03.186Z,6.33
2018-08-14T14:50:32.885Z,5.87
2018-08-14T14:53:02.149Z,4.30
2018-08-14T14:55:30.980Z,6.35
2018-08-14T14:57:59.865Z,5.10
2018-08-14T15:00:34.377Z,4.08
2018-08-14T15:06:26.078Z,5.83
2018-08-14T15:08:54.522Z,7.25
2018-08-14T15:11:23.362Z,8.80
2018-08-14T15:13:52.146Z,7.28
2018-08-14T15:16:20.911Z,6.33
2018-08-14T15:18:49.697Z,4.05
2018-08-14T15:21:18.579Z,7.05
2018-08-14T15:23:47.253Z,4.97
2018-08-14T15:26:16.119Z,7.58
2018-08-14T15:28:57.400Z,4.97
2018-08-14T15:31:26.487Z,4.22
2018-08-14T15:33:57.273Z,5.37
2018-08-14T15:36:27.369Z,2.83
2018-08-14T15:38:58.604Z,13.28
2018-08-14T15:41:27.761Z,5.08
2018-08-14T15:43:56.489Z,4.08
2018-08-14T15:46:24.999Z,5.25
2018-08-14T15:48:54.670Z,5.83
2018-08-14T15:51:26.713Z,6.10
2018-08-14T15:53:55.659Z,6.05
2018-08-14T15:56:24.746Z,6.15
2018-08-14T15:58:53.516Z,5.33
2018-08-14T16:01:23.258Z,3.87
2018-08-14T16:03:52.432Z,8.68
2018-08-14T16:06:21.148Z,3.55
2018-08-14T16:08:50.839Z,4.20
2018-08-14T16:11:25.524Z,3.80
2018-08-14T16:13:53.862Z,5.97
2018-08-14T16:16:22.671Z,5.80
2018-08-14T16:18:51.113Z,5.42
2018-08-14T16:21:19.914Z,3.40
2018-08-14T16:23:48.272Z,4.22
2018-08-14T16:26:16.677Z,4.70
2018-08-14T16:28:45.162Z,5.03
2018-08-14T16:31:13.553Z,4.60
2018-08-14T16:33:42.269Z,4.15
2018-08-14T16:36:11.070Z,6.67
2018-08-14T16:38:39.872Z,4.80
2018-08-14T16:41:15.340Z,4.17
2018-08-14T16:43:44.097Z,6.45
2018-08-14T16:46:12.481Z,5.33
2018-08-14T16:48:41.429Z,4.20
2018-08-14T16:54:09.199Z,9.43
2018-08-14T16:56:37.567Z,5.62
2018-08-14T16:59:06.655Z,5.87
2018-08-14T17:01:37.799Z,6.62
2018-08-14T17:04:06.570Z,4.97
2018-08-14T17:06:34.877Z,3.75
2018-08-14T17:09:03.717Z,5.78
2018-08-14T17:11:32.436Z,4.53
2018-08-14T17:14:01.152Z,6.37
2018-08-14T17:16:30.077Z,7.42
2018-08-14T17:18:58.845Z,4.12
2018-08-14T17:21:27.119Z,6.62
2018-08-14T17:23:55.561Z,5.92
2018-08-14T17:26:24.839Z,6.47
2018-08-14T17:28:53.170Z,5.90
2018-08-14T17:31:21.934Z,4.47
2018-08-14T17:33:50.676Z,4.70
2018-08-14T17:36:19.433Z,5.10
2018-08-14T17:38:47.830Z,6.00
2018-08-14T17:41:16.553Z,5.33
2018-08-14T17:43:45.348Z,5.65
2018-08-14T17:46:13.699Z,2.75
2018-08-14T17:48:42.437Z,4.33
2018-08-14T17:51:11.212Z,5.22
2018-08-14T17:53:39.935Z,8.90
2018-08-14T17:56:08.623Z,4.03
2018-08-14T17:58:37.320Z,5.15
2018-08-14T18:01:06.139Z,4.95
2018-08-14T18:03:34.432Z,4.37
2018-08-14T18:06:03.164Z,7.37
2018-08-14T18:08:31.899Z,5.85
2018-08-14T18:11:00.228Z,5.45
2018-08-14T18:13:29.041Z,5.15
2018-08-14T18:15:57.788Z,6.60
2018-08-14T18:18:26.500Z,6.33
2018-08-14T18:20:55.256Z,5.30
2018-08-14T18:23:24.027Z,6.37
2018-08-14T18:25:52.807Z,4.35
2018-08-14T18:28:21.549Z,5.50
2018-08-14T18:30:50.258Z,6.10
2018-08-14T18:33:18.725Z,5.03
2018-08-14T18:35:47.364Z,5.72
2018-08-14T18:38:15.704Z,4.97
2018-08-14T18:40:44.447Z,3.42
2018-08-14T18:43:12.797Z,3.30
2018-08-14T18:45:41.130Z,6.12
2018-08-14T18:48:09.857Z,6.45
2018-08-14T18:50:38.607Z,7.53
2018-08-14T18:53:07.386Z,6.60
2018-08-14T18:55:36.106Z,7.15
2018-08-14T18:58:04.936Z,5.50
2018-08-14T19:00:33.645Z,4.05
2018-08-14T19:03:02.331Z,3.37
2018-08-14T19:05:30.744Z,4.15
2018-08-14T19:07:59.429Z,3.90
2018-08-14T19:10:28.106Z,5.37
2018-08-14T19:12:56.875Z,4.92
2018-08-14T19:15:30.802Z,7.58
2018-08-14T19:17:59.556Z,7.35
2018-08-14T19:20:27.891Z,5.42
2018-08-14T19:22:56.623Z,3.30
2018-08-14T19:25:25.324Z,4.53
2018-08-14T19:27:54.073Z,5.80
2018-08-14T19:30:22.769Z,7.65
2018-08-14T19:32:51.112Z,2.72
2018-08-14T19:35:19.835Z,5.92
2018-08-14T19:37:48.661Z,7.28
2018-08-14T19:40:19.245Z,3.60
2018-08-14T19:42:48.263Z,5.50
2018-08-14T19:45:17.048Z,4.30
2018-08-14T19:47:45.481Z,4.70
2018-08-14T19:50:14.378Z,5.00
2018-08-14T19:52:43.299Z,6.03
2018-08-14T19:55:14.461Z,5.85
2018-08-14T19:57:44.742Z,7.22
2018-08-14T20:00:15.260Z,6.35
2018-08-14T20:02:44.154Z,5.15
2018-08-14T20:05:14.663Z,5.72
2018-08-14T20:07:43.386Z,7.20
2018-08-14T20:10:13.022Z,7.85
2018-08-14T20:12:42.049Z,5.37
2018-08-14T20:15:13.062Z,5.72
2018-08-14T20:17:41.889Z,7.45
2018-08-14T20:20:14.687Z,5.65
2018-08-14T20:22:43.431Z,6.42
2018-08-14T20:25:12.269Z,10.65
2018-08-14T20:27:41.014Z,4.80
2018-08-14T20:30:11.623Z,6.65
2018-08-14T20:32:40.839Z,4.58
2018-08-14T20:35:11.228Z,4.73
2018-08-14T20:37:39.938Z,4.95
2018-08-14T20:40:12.577Z,4.78
2018-08-14T20:42:41.313Z,6.23
2018-08-14T20:45:11.001Z,6.33
2018-08-14T20:47:40.012Z,3.83
2018-08-14T20:50:10.976Z,6.92
2018-08-14T20:52:39.791Z,5.22
2018-08-14T20:55:10.191Z,6.70
2018-08-14T20:57:40.146Z,4.20
2018-08-14T21:00:11.081Z,4.53
2018-08-14T21:02:40.495Z,4.43
2018-08-14T21:05:09.249Z,7.20
2018-08-14T21:07:37.934Z,7.17
2018-08-14T21:10:07.588Z,3.97
2018-08-14T21:12:40.470Z,8.17
2018-08-14T21:15:11.560Z,6.42
2018-08-14T21:17:40.685Z,4.47
2018-08-14T21:20:11.091Z,4.08
2018-08-14T21:22:39.899Z,8.47
2018-08-14T21:25:08.813Z,5.70
2018-08-14T21:27:37.395Z,6.00
2018-08-14T21:30:08.008Z,3.43
2018-08-14T21:32:36.760Z,3.77
2018-08-14T21:35:07.293Z,6.30
2018-08-14T21:37:36.215Z,6.03
2018-08-14T21:40:06.405Z,5.63
2018-08-14T21:42:35.123Z,2.67
2018-08-14T21:45:03.963Z,4.10
2018-08-14T21:47:35.625Z,4.13
2018-08-14T21:50:04.922Z,2.37
2018-08-14T21:52:33.746Z,3.30
2018-08-14T21:55:02.427Z,6.28
2018-08-14T21:57:30.797Z,4.00
2018-08-14T21:59:59.481Z,3.22
2018-08-14T22:02:27.825Z,3.10
2018-08-14T22:04:57.583Z,2.05
2018-08-14T22:07:26.425Z,6.08
2018-08-14T22:09:55.151Z,2.83
2018-08-14T22:12:23.478Z,3.98
2018-08-14T22:14:52.708Z,4.12
2018-08-14T22:17:21.423Z,3.58
2018-08-14T22:19:50.221Z,6.62
2018-08-14T22:22:18.924Z,1.80
2018-08-14T22:24:47.687Z,3.40
2018-08-14T22:27:16.008Z,4.42
2018-08-14T22:29:44.951Z,2.33
2018-08-14T22:32:13.701Z,3.10
2018-08-14T22:34:42.449Z,3.52
2018-08-14T22:37:11.185Z,2.70
2018-08-14T22:39:39.941Z,2.27
2018-08-14T22:42:08.288Z,3.50
2018-08-14T22:44:36.959Z,3.00
2018-08-14T22:47:06.043Z,4.97
2018-08-14T22:49:34.712Z,3.95
2018-08-14T22:52:03.468Z,1.62
2018-08-14T22:54:32.215Z,1.95
2018-08-14T22:57:00.869Z,2.95
2018-08-14T22:59:29.557Z,2.52
2018-08-14T23:01:58.253Z,2.25
2018-08-14T23:04:27.017Z,1.52
2018-08-14T23:06:55.657Z,4.00
2018-08-14T23:09:24.393Z,2.80
2018-08-14T23:11:53.091Z,3.98
2018-08-14T23:14:21.863Z,2.90
2018-08-14T23:16:50.613Z,2.80
2018-08-14T23:19:19.338Z,4.10
2018-08-14T23:21:47.602Z,2.00
2018-08-14T23:24:16.270Z,6.85
2018-08-14T23:26:44.965Z,1.83
2018-08-14T23:29:13.348Z,1.73
2018-08-14T23:31:42.764Z,3.17
2018-08-14T23:34:11.154Z,2.12
2018-08-14T23:36:39.880Z,1.53
2018-08-14T23:39:10.993Z,1.98
2018-08-14T23:41:39.823Z,2.63
2018-08-14T23:44:08.193Z,4.40
2018-08-14T23:46:36.925Z,2.92
2018-08-14T23:49:05.254Z,2.17
2018-08-14T23:51:34.137Z,2.63
2018-08-14T23:54:02.831Z,2.47
2018-08-14T23:56:31.559Z,2.30
2018-08-14T23:59:00.273Z,3.23
